Time;durP1;ratioP1;P1;durP2;ratioP2;P2;SDS_P1;SDS_P2;PMS_P1;PMS_P2;Temp;Humidity;BMP_temperature;BMP_pressure;BME280_temperature;BME280_humidity;BME280_pressure;Samples;Min_cycle;Max_cycle;Signal;HPM_P1;HPM_P2
2021/09/19 00:02:24;;;;;;;4.40;2.67;;;12.90;99.90;;;;;;5062665;28;20195;-47
2021/09/19 00:04:50;;;;;;;4.93;2.90;;;12.90;99.90;;;;;;5073587;28;20707;-47
2021/09/19 00:07:17;;;;;;;3.77;2.77;;;12.90;99.90;;;;;;5061960;28;20222;-46
2021/09/19 00:09:44;;;;;;;6.67;2.93;;;12.90;99.90;;;;;;5064780;28;20206;-45
2021/09/19 00:12:11;;;;;;;3.30;2.90;;;12.90;99.90;;;;;;5067590;28;20660;-52
2021/09/19 00:14:39;;;;;;;4.07;2.97;;;12.90;99.90;;;;;;5084759;28;20205;-50
2021/09/19 00:17:05;;;;;;;3.97;2.90;;;12.90;99.90;;;;;;5081763;28;20214;-53
2021/09/19 00:19:32;;;;;;;2.93;2.70;;;12.90;99.90;;;;;;5082727;28;20194;-44
2021/09/19 00:21:59;;;;;;;4.37;3.07;;;12.90;99.90;;;;;;5067422;28;20202;-53
2021/09/19 00:24:25;;;;;;;5.70;2.97;;;12.90;99.90;;;;;;5053672;28;20214;-46
2021/09/19 00:26:52;;;;;;;3.83;2.70;;;12.90;99.90;;;;;;5064664;28;20229;-47
2021/09/19 00:29:19;;;;;;;4.77;3.10;;;12.90;99.90;;;;;;5054101;28;20603;-47
2021/09/19 00:31:47;;;;;;;3.13;2.83;;;12.90;99.90;;;;;;5064627;28;20194;-52
2021/09/19 00:34:14;;;;;;;6.07;3.23;;;12.90;99.90;;;;;;5060758;28;20205;-48
2021/09/19 00:36:40;;;;;;;6.07;2.97;;;12.90;99.90;;;;;;5059612;28;20226;-44
2021/09/19 00:39:08;;;;;;;4.40;2.93;;;12.90;99.90;;;;;;5045167;28;20207;-53
2021/09/19 00:41:35;;;;;;;4.00;2.90;;;12.90;99.90;;;;;;5071659;28;20199;-49
2021/09/19 00:44:04;;;;;;;4.87;3.13;;;12.90;99.90;;;;;;5060757;28;20202;-52
2021/09/19 00:46:31;;;;;;;3.67;2.43;;;12.90;99.90;;;;;;5063581;28;20214;-44
2021/09/19 00:48:59;;;;;;;5.47;2.47;;;12.90;99.90;;;;;;5060280;28;20587;-52
2021/09/19 00:51:27;;;;;;;5.20;2.53;;;12.90;99.90;;;;;;5054697;28;20768;-47
2021/09/19 00:53:56;;;;;;;4.90;3.13;;;12.90;99.90;;;;;;5048987;28;20203;-53
2021/09/19 00:56:25;;;;;;;3.53;2.70;;;12.90;99.90;;;;;;5062665;28;20226;-48
2021/09/19 00:58:54;;;;;;;5.33;2.90;;;12.80;99.90;;;;;;5061326;28;20211;-48
2021/09/19 01:01:22;;;;;;;4.97;3.30;;;12.90;99.90;;;;;;5063801;28;20198;-44
2021/09/19 01:03:48;;;;;;;3.83;3.27;;;12.90;99.90;;;;;;5062376;28;20202;-53
2021/09/19 01:06:17;;;;;;;4.63;2.80;;;12.90;99.90;;;;;;5062161;28;20218;-48
2021/09/19 01:08:44;;;;;;;3.60;2.80;;;12.80;99.90;;;;;;5058625;28;20562;-54
2021/09/19 01:11:11;;;;;;;6.20;2.80;;;12.90;99.90;;;;;;5051416;28;20328;-47
2021/09/19 01:13:40;;;;;;;3.70;2.60;;;12.90;99.90;;;;;;5083352;28;20694;-44
2021/09/19 01:16:08;;;;;;;4.37;3.00;;;12.90;99.90;;;;;;5058689;28;20234;-44
2021/09/19 01:18:35;;;;;;;5.37;2.93;;;12.90;99.90;;;;;;5079007;28;20216;-45
2021/09/19 01:21:02;;;;;;;4.10;2.97;;;12.90;99.90;;;;;;5078814;28;20193;-44
2021/09/19 01:23:31;;;;;;;4.03;3.13;;;12.90;99.90;;;;;;5083317;28;20198;-48
2021/09/19 01:25:58;;;;;;;3.70;2.73;;;12.90;99.90;;;;;;5044218;28;20223;-52
2021/09/19 01:28:25;;;;;;;4.37;2.70;;;12.90;99.90;;;;;;5065497;28;20197;-50
2021/09/19 01:30:51;;;;;;;4.93;3.00;;;12.90;99.90;;;;;;5067756;28;20207;-54
2021/09/19 01:33:18;;;;;;;4.00;3.10;;;12.80;99.90;;;;;;5082313;28;20202;-44
2021/09/19 01:35:45;;;;;;;2.83;2.40;;;12.80;99.90;;;;;;5080344;28;20201;-53
2021/09/19 01:38:11;;;;;;;3.33;3.03;;;12.80;99.90;;;;;;5061771;28;20866;-46
2021/09/19 01:40:39;;;;;;;3.53;3.23;;;12.70;99.90;;;;;;5047573;28;20218;-46
2021/09/19 01:43:06;;;;;;;5.13;3.10;;;12.70;99.90;;;;;;5058922;28;20207;-45
2021/09/19 01:45:33;;;;;;;3.00;2.80;;;12.60;99.90;;;;;;5063967;28;20805;-47
2021/09/19 01:48:00;;;;;;;4.83;3.23;;;12.70;99.90;;;;;;5061736;28;20229;-46
2021/09/19 01:50:28;;;;;;;5.83;3.27;;;12.60;99.90;;;;;;5082683;28;20653;-44
2021/09/19 01:52:55;;;;;;;7.27;3.33;;;12.60;99.90;;;;;;5079772;28;20205;-54
2021/09/19 01:55:22;;;;;;;3.23;2.40;;;12.60;99.90;;;;;;5061494;28;20552;-50
2021/09/19 01:57:50;;;;;;;4.37;2.43;;;12.60;99.90;;;;;;5052290;28;20229;-49
2021/09/19 02:00:18;;;;;;;7.10;3.00;;;12.60;99.90;;;;;;5063685;28;20660;-45
2021/09/19 02:02:44;;;;;;;4.97;2.67;;;12.60;99.90;;;;;;5053534;28;20218;-53
2021/09/19 02:05:11;;;;;;;3.63;2.97;;;12.60;99.90;;;;;;5062684;28;20222;-43
2021/09/19 02:07:39;;;;;;;4.93;3.00;;;12.70;99.90;;;;;;5056686;28;20276;-50
2021/09/19 02:10:09;;;;;;;3.50;2.40;;;12.60;99.90;;;;;;5060901;28;20877;-44
2021/09/19 02:12:36;;;;;;;5.00;2.80;;;12.60;99.90;;;;;;5041209;28;20203;-52
2021/09/19 02:15:04;;;;;;;5.43;3.20;;;12.60;99.90;;;;;;5060077;28;20698;-49
2021/09/19 02:17:31;;;;;;;3.13;2.77;;;12.60;99.90;;;;;;5063539;28;20223;-49
2021/09/19 02:19:57;;;;;;;4.40;2.90;;;12.60;99.90;;;;;;5053799;28;20210;-46
2021/09/19 02:22:24;;;;;;;5.03;3.00;;;12.60;99.90;;;;;;5063730;28;20566;-52
2021/09/19 02:24:51;;;;;;;8.60;3.03;;;12.60;99.90;;;;;;5053796;28;20214;-52
2021/09/19 02:27:20;;;;;;;6.43;2.93;;;12.60;99.90;;;;;;5047353;28;20718;-46
2021/09/19 02:29:47;;;;;;;4.00;2.70;;;12.60;99.90;;;;;;5067833;28;20292;-50
2021/09/19 02:32:15;;;;;;;4.20;2.90;;;12.70;99.90;;;;;;5057266;28;20216;-44
2021/09/19 02:34:42;;;;;;;3.47;3.17;;;12.70;99.90;;;;;;5061590;28;20245;-50
2021/09/19 02:37:09;;;;;;;3.27;2.70;;;12.70;99.90;;;;;;5059480;28;20233;-50
2021/09/19 02:39:35;;;;;;;4.40;2.90;;;12.70;99.90;;;;;;5067432;28;20206;-52
2021/09/19 02:42:02;;;;;;;6.20;3.10;;;12.70;99.90;;;;;;5070661;28;20202;-44
2021/09/19 02:44:29;;;;;;;3.37;2.63;;;12.70;99.90;;;;;;5051221;28;20209;-52
2021/09/19 02:46:55;;;;;;;10.93;3.80;;;12.70;99.90;;;;;;5058937;28;20222;-46
2021/09/19 02:49:23;;;;;;;4.60;2.90;;;12.70;99.90;;;;;;5063022;28;20209;-44
2021/09/19 02:51:50;;;;;;;2.67;2.47;;;12.60;99.90;;;;;;5058909;28;20207;-52
2021/09/19 02:54:17;;;;;;;5.53;2.60;;;12.60;99.90;;;;;;5062980;28;20194;-44
2021/09/19 02:56:43;;;;;;;3.27;2.70;;;12.60;99.90;;;;;;5054805;28;20272;-52
2021/09/19 02:59:10;;;;;;;5.27;2.50;;;12.60;99.90;;;;;;5052304;28;20944;-46
2021/09/19 03:01:37;;;;;;;3.57;2.90;;;12.60;99.90;;;;;;5062420;28;20199;-54
2021/09/19 03:04:03;;;;;;;4.90;2.60;;;12.60;99.90;;;;;;5066311;28;20920;-52
2021/09/19 03:06:31;;;;;;;2.50;2.30;;;12.60;99.90;;;;;;5066431;28;20233;-44
2021/09/19 03:08:58;;;;;;;3.00;2.37;;;12.60;99.90;;;;;;5062447;28;20198;-48
2021/09/19 03:11:25;;;;;;;2.93;2.13;;;12.60;99.90;;;;;;5068026;28;20198;-44
2021/09/19 03:13:53;;;;;;;4.40;2.60;;;12.60;99.90;;;;;;5060232;28;20203;-53
2021/09/19 03:16:20;;;;;;;2.63;2.43;;;12.60;99.90;;;;;;5060316;28;20386;-48
2021/09/19 03:18:47;;;;;;;2.73;2.43;;;12.60;99.90;;;;;;5063070;28;20205;-50
2021/09/19 03:21:14;;;;;;;2.77;2.30;;;12.50;99.90;;;;;;5063051;28;20206;-47
2021/09/19 03:23:42;;;;;;;4.07;2.70;;;12.60;99.90;;;;;;5064020;28;20199;-54
2021/09/19 03:26:08;;;;;;;3.73;2.83;;;12.60;99.90;;;;;;5064161;28;20222;-48
2021/09/19 03:28:35;;;;;;;3.53;2.60;;;12.50;99.90;;;;;;5062041;28;20206;-53
2021/09/19 03:31:02;;;;;;;3.20;2.50;;;12.50;99.90;;;;;;5049242;28;20206;-44
2021/09/19 03:33:28;;;;;;;3.17;2.57;;;12.60;99.90;;;;;;5065936;28;20618;-47
2021/09/19 03:35:55;;;;;;;2.70;2.10;;;12.60;99.90;;;;;;5061933;28;20190;-46
2021/09/19 03:38:22;;;;;;;4.47;2.53;;;12.60;99.90;;;;;;5053590;28;20226;-44
2021/09/19 03:40:49;;;;;;;2.63;2.43;;;12.60;99.90;;;;;;5068619;28;20206;-55
2021/09/19 03:43:16;;;;;;;4.33;2.60;;;12.60;99.90;;;;;;5060887;28;20205;-47
2021/09/19 03:45:43;;;;;;;2.43;2.23;;;12.60;99.90;;;;;;5055406;28;20222;-52
2021/09/19 03:48:10;;;;;;;4.07;2.50;;;12.60;99.90;;;;;;5061417;28;20210;-48
2021/09/19 03:50:38;;;;;;;4.30;2.73;;;12.60;99.90;;;;;;5064411;28;20313;-52
2021/09/19 03:53:05;;;;;;;7.37;3.17;;;12.60;99.90;;;;;;5075748;28;20938;-44
2021/09/19 03:55:32;;;;;;;4.00;2.50;;;12.60;99.90;;;;;;5084561;28;20202;-51
2021/09/19 03:58:01;;;;;;;4.00;2.70;;;12.60;99.90;;;;;;5081388;28;20214;-46
2021/09/19 04:00:28;;;;;;;3.63;2.40;;;12.60;99.90;;;;;;5084759;28;20198;-44
2021/09/19 04:02:55;;;;;;;3.07;2.70;;;12.70;99.90;;;;;;5045357;28;20209;-47
2021/09/19 04:05:21;;;;;;;4.87;2.60;;;12.70;99.90;;;;;;5065326;28;20202;-47
2021/09/19 04:07:48;;;;;;;3.67;2.63;;;12.60;99.90;;;;;;5061662;28;20223;-51
2021/09/19 04:10:15;;;;;;;3.83;2.73;;;12.60;99.90;;;;;;5059323;28;20199;-48
2021/09/19 04:12:42;;;;;;;3.60;2.50;;;12.60;99.90;;;;;;5072785;28;20202;-51
2021/09/19 04:15:11;;;;;;;2.63;2.40;;;12.60;99.90;;;;;;5082870;28;20198;-44
2021/09/19 04:17:38;;;;;;;3.00;2.50;;;12.50;99.90;;;;;;5045274;28;20222;-49
2021/09/19 04:20:06;;;;;;;4.27;2.60;;;12.50;99.90;;;;;;5061981;28;20201;-43
2021/09/19 04:22:33;;;;;;;4.70;2.60;;;12.50;99.90;;;;;;5065150;28;20214;-52
2021/09/19 04:25:00;;;;;;;4.07;2.30;;;12.60;99.90;;;;;;5061625;28;20276;-47
2021/09/19 04:27:27;;;;;;;5.33;2.57;;;12.60;99.90;;;;;;5064938;28;20718;-44
2021/09/19 04:29:53;;;;;;;3.17;2.60;;;12.60;99.90;;;;;;5058548;28;20935;-44
2021/09/19 04:32:22;;;;;;;5.60;2.73;;;12.50;99.90;;;;;;5065102;28;20203;-47
2021/09/19 04:34:49;;;;;;;3.90;2.30;;;12.60;99.90;;;;;;5049500;28;20230;-52
2021/09/19 04:37:16;;;;;;;3.07;2.30;;;12.60;99.90;;;;;;5064523;28;20218;-46
2021/09/19 04:39:43;;;;;;;5.70;2.70;;;12.60;99.90;;;;;;5062177;28;20203;-52
2021/09/19 04:42:11;;;;;;;2.90;2.50;;;12.60;99.90;;;;;;5065442;28;20277;-46
2021/09/19 04:44:38;;;;;;;2.60;2.40;;;12.60;99.90;;;;;;5064916;28;20213;-53
2021/09/19 04:47:04;;;;;;;3.50;2.57;;;12.60;99.90;;;;;;5061626;28;20223;-49
2021/09/19 04:49:33;;;;;;;3.70;2.30;;;12.60;99.90;;;;;;5042457;28;20203;-48
2021/09/19 04:51:59;;;;;;;3.67;2.60;;;12.60;99.90;;;;;;5060775;28;20193;-44
2021/09/19 04:54:26;;;;;;;2.57;2.10;;;12.60;99.90;;;;;;5064886;28;20195;-47
2021/09/19 04:56:53;;;;;;;2.50;2.30;;;12.60;99.90;;;;;;5054434;28;20203;-48
2021/09/19 04:59:20;;;;;;;2.37;2.17;;;12.50;99.90;;;;;;5064411;28;20664;-46
2021/09/19 05:01:47;;;;;;;3.03;2.23;;;12.50;99.90;;;;;;5061208;28;20207;-51
2021/09/19 05:04:13;;;;;;;4.57;2.23;;;12.50;99.90;;;;;;5042264;28;20203;-49
2021/09/19 05:06:41;;;;;;;4.47;2.47;;;12.50;99.90;;;;;;5062467;28;20298;-52
2021/09/19 05:09:08;;;;;;;2.63;2.20;;;12.50;99.90;;;;;;5061964;28;20190;-47
2021/09/19 05:11:34;;;;;;;5.17;2.40;;;12.50;99.90;;;;;;5072954;28;20566;-54
2021/09/19 05:14:01;;;;;;;2.80;2.33;;;12.50;99.90;;;;;;5058339;28;20218;-48
2021/09/19 05:16:28;;;;;;;4.73;2.77;;;12.50;99.90;;;;;;5064224;28;20219;-45
2021/09/19 05:18:56;;;;;;;3.67;2.37;;;12.50;99.90;;;;;;5039298;28;20221;-46
2021/09/19 05:21:23;;;;;;;3.47;2.17;;;12.50;99.90;;;;;;5064037;28;20726;-52
2021/09/19 05:23:51;;;;;;;3.97;2.57;;;12.50;99.90;;;;;;5053925;28;20217;-47
2021/09/19 05:26:18;;;;;;;3.93;2.43;;;12.50;99.90;;;;;;5063023;28;20218;-47
2021/09/19 05:28:45;;;;;;;4.10;2.27;;;12.50;99.90;;;;;;5061114;28;20211;-53
2021/09/19 05:31:12;;;;;;;4.10;2.10;;;12.50;99.90;;;;;;5062820;28;20197;-44
2021/09/19 05:33:39;;;;;;;2.43;2.23;;;12.50;99.90;;;;;;5056930;28;20749;-51
2021/09/19 05:36:06;;;;;;;2.47;2.27;;;12.50;99.90;;;;;;5060496;28;20203;-48
2021/09/19 05:38:32;;;;;;;3.60;2.50;;;12.50;99.90;;;;;;5063738;28;20195;-51
2021/09/19 05:41:00;;;;;;;3.10;2.50;;;12.50;99.90;;;;;;5061713;28;20197;-44
2021/09/19 05:43:27;;;;;;;2.63;2.43;;;12.50;99.90;;;;;;5078568;28;20206;-43
2021/09/19 05:45:53;;;;;;;3.93;2.23;;;12.60;99.90;;;;;;5079031;28;20312;-45
2021/09/19 05:48:20;;;;;;;4.10;2.30;;;12.60;99.90;;;;;;5083109;28;20558;-45
2021/09/19 05:50:47;;;;;;;3.87;2.60;;;12.60;99.90;;;;;;5054285;28;20207;-53
2021/09/19 05:53:13;;;;;;;3.47;2.50;;;12.60;99.90;;;;;;5058224;28;20203;-51
2021/09/19 05:55:40;;;;;;;3.53;2.27;;;12.60;99.90;;;;;;5063900;28;20679;-48
2021/09/19 05:58:08;;;;;;;3.50;2.30;;;12.50;99.90;;;;;;5065671;28;20226;-54
2021/09/19 06:00:35;;;;;;;3.53;2.27;;;12.50;99.90;;;;;;5081889;28;20198;-45
2021/09/19 06:03:01;;;;;;;2.60;2.40;;;12.60;99.90;;;;;;5062537;28;20210;-52
2021/09/19 06:05:28;;;;;;;2.17;1.97;;;12.50;99.90;;;;;;5046157;28;20207;-44
2021/09/19 06:07:54;;;;;;;6.40;2.50;;;12.50;99.90;;;;;;5062615;28;20226;-53
2021/09/19 06:10:21;;;;;;;3.10;2.50;;;12.60;99.90;;;;;;5059375;28;20193;-44
2021/09/19 06:12:48;;;;;;;2.73;2.23;;;12.60;99.90;;;;;;5067800;28;20213;-45
2021/09/19 06:15:15;;;;;;;4.40;2.50;;;12.60;99.90;;;;;;5053261;28;20195;-46
2021/09/19 06:17:42;;;;;;;4.73;2.57;;;12.60;99.90;;;;;;5056463;28;20210;-49
2021/09/19 06:20:10;;;;;;;3.50;2.57;;;12.60;99.90;;;;;;5056524;28;20482;-45
2021/09/19 06:22:37;;;;;;;3.20;2.37;;;12.60;99.90;;;;;;5045019;28;20203;-52
2021/09/19 06:25:04;;;;;;;2.87;2.23;;;12.60;99.90;;;;;;5058671;28;20214;-47
2021/09/19 06:27:32;;;;;;;2.40;2.20;;;12.60;99.90;;;;;;5052620;28;20218;-51
2021/09/19 06:29:58;;;;;;;3.23;2.20;;;12.60;99.90;;;;;;5067215;28;20199;-47
2021/09/19 06:32:26;;;;;;;3.50;2.17;;;12.70;99.90;;;;;;5058601;28;20202;-52
2021/09/19 06:34:53;;;;;;;3.73;2.50;;;12.70;99.90;;;;;;5055594;28;20198;-46
2021/09/19 06:37:20;;;;;;;3.80;2.37;;;12.80;99.90;;;;;;5048525;28;20218;-52
2021/09/19 06:39:47;;;;;;;5.53;2.80;;;12.80;99.90;;;;;;5050859;28;20214;-46
2021/09/19 06:42:13;;;;;;;2.47;2.27;;;12.80;99.90;;;;;;5061592;28;20568;-53
2021/09/19 06:44:40;;;;;;;3.37;2.13;;;12.80;99.90;;;;;;5068027;28;20198;-45
2021/09/19 06:47:06;;;;;;;2.63;2.30;;;12.80;99.90;;;;;;5056904;28;20237;-51
2021/09/19 06:49:34;;;;;;;2.67;2.47;;;12.80;99.90;;;;;;5077716;28;20838;-44
2021/09/19 06:52:01;;;;;;;6.30;2.73;;;12.80;99.90;;;;;;5057194;28;20605;-52
2021/09/19 06:54:28;;;;;;;2.80;2.20;;;12.80;99.90;;;;;;5043733;28;20219;-53
2021/09/19 06:56:54;;;;;;;2.30;2.10;;;12.90;99.90;;;;;;5062533;28;20961;-44
2021/09/19 06:59:21;;;;;;;2.53;2.33;;;12.90;99.90;;;;;;5062191;28;20199;-48
2021/09/19 07:01:48;;;;;;;4.07;2.40;;;12.90;99.90;;;;;;5056408;28;20210;-52
2021/09/19 07:04:14;;;;;;;2.30;2.10;;;12.80;99.90;;;;;;5081840;28;20208;-47
2021/09/19 07:06:42;;;;;;;3.63;2.20;;;12.90;99.90;;;;;;5071130;28;20244;-54
2021/09/19 07:09:09;;;;;;;3.93;2.00;;;12.90;99.90;;;;;;5052560;28;20274;-45
2021/09/19 07:11:36;;;;;;;2.70;2.30;;;12.90;99.90;;;;;;5063311;28;20202;-47
2021/09/19 07:14:03;;;;;;;4.40;2.87;;;13.00;99.90;;;;;;5060194;28;20202;-51
2021/09/19 07:16:29;;;;;;;2.20;1.93;;;13.00;99.90;;;;;;5057610;28;20339;-47
2021/09/19 07:18:56;;;;;;;3.60;2.33;;;13.10;99.90;;;;;;5066612;28;20205;-54
2021/09/19 07:21:23;;;;;;;2.50;2.30;;;13.10;99.90;;;;;;5062396;28;20195;-55
2021/09/19 07:23:51;;;;;;;2.80;2.50;;;13.10;99.90;;;;;;5040821;28;20203;-46
2021/09/19 07:26:17;;;;;;;3.00;2.27;;;13.10;99.90;;;;;;5054983;28;20210;-47
2021/09/19 07:28:44;;;;;;;2.97;2.20;;;13.20;99.90;;;;;;5061055;28;20215;-45
2021/09/19 07:31:11;;;;;;;2.37;2.17;;;13.20;99.90;;;;;;5057890;28;20202;-50
2021/09/19 07:33:38;;;;;;;3.60;2.70;;;13.20;99.90;;;;;;5059330;28;20202;-46
2021/09/19 07:36:06;;;;;;;4.13;2.60;;;13.30;99.90;;;;;;5056343;28;20203;-51
2021/09/19 07:38:34;;;;;;;4.27;2.10;;;13.30;99.90;;;;;;5072117;28;20175;-46
2021/09/19 07:41:02;;;;;;;4.13;2.53;;;13.40;99.90;;;;;;5045535;28;20680;-51
2021/09/19 07:43:29;;;;;;;2.10;1.90;;;13.50;99.90;;;;;;5068082;28;20195;-45
2021/09/19 07:45:56;;;;;;;2.33;2.13;;;13.50;99.90;;;;;;5060329;28;20221;-52
2021/09/19 07:48:24;;;;;;;3.73;2.20;;;13.60;99.90;;;;;;5061275;28;20954;-47
2021/09/19 07:50:51;;;;;;;2.57;2.37;;;13.60;99.90;;;;;;5062758;28;20203;-46
2021/09/19 07:53:18;;;;;;;5.60;2.80;;;13.60;99.90;;;;;;5061825;28;20879;-50
2021/09/19 07:55:44;;;;;;;2.37;2.17;;;13.70;99.90;;;;;;5046151;28;20198;-50
2021/09/19 07:58:12;;;;;;;3.23;2.00;;;13.70;99.90;;;;;;5061806;28;20223;-53
2021/09/19 08:00:39;;;;;;;6.50;2.30;;;13.70;99.90;;;;;;5067618;28;20671;-49
2021/09/19 08:03:06;;;;;;;2.90;2.33;;;13.70;99.90;;;;;;5082886;28;20229;-54
2021/09/19 08:05:32;;;;;;;5.00;2.23;;;13.80;99.90;;;;;;5083471;28;20190;-49
2021/09/19 08:07:59;;;;;;;5.97;2.30;;;13.80;99.90;;;;;;5070594;28;20692;-50
2021/09/19 08:10:26;;;;;;;3.63;2.13;;;13.80;99.90;;;;;;5046918;28;21054;-49
2021/09/19 08:12:52;;;;;;;4.80;2.47;;;13.80;99.90;;;;;;5065863;28;20213;-48
2021/09/19 08:15:22;;;;;;;3.70;2.00;;;13.80;99.90;;;;;;5056392;28;20611;-47
2021/09/19 08:17:49;;;;;;;2.70;2.50;;;13.80;99.90;;;;;;5065306;28;20219;-50
2021/09/19 08:20:17;;;;;;;2.33;2.13;;;13.80;99.90;;;;;;5059271;28;20202;-45
2021/09/19 08:22:44;;;;;;;4.57;2.50;;;13.90;99.90;;;;;;5065292;28;20835;-46
2021/09/19 08:25:12;;;;;;;3.67;3.00;;;13.80;99.90;;;;;;5061978;28;20210;-53
2021/09/19 08:27:40;;;;;;;2.97;2.47;;;13.90;99.90;;;;;;5049427;28;20230;-48
2021/09/19 08:30:09;;;;;;;2.17;1.97;;;13.80;99.90;;;;;;5061792;28;20285;-55
2021/09/19 08:32:38;;;;;;;3.60;2.37;;;13.90;99.90;;;;;;5064280;28;20770;-49
2021/09/19 08:35:06;;;;;;;4.00;2.63;;;13.90;99.90;;;;;;5063066;28;20199;-54
2021/09/19 08:37:32;;;;;;;2.43;2.20;;;14.00;99.90;;;;;;5063151;28;20202;-49
2021/09/19 08:39:59;;;;;;;3.27;2.27;;;14.00;99.90;;;;;;5052956;28;20206;-47
2021/09/19 08:42:27;;;;;;;3.03;2.30;;;14.00;99.90;;;;;;5042940;28;20207;-57
2021/09/19 08:44:53;;;;;;;2.30;2.10;;;14.10;99.90;;;;;;5070446;28;20278;-50
2021/09/19 08:47:21;;;;;;;2.60;2.20;;;14.10;99.90;;;;;;5057372;28;20218;-49
2021/09/19 08:49:49;;;;;;;2.43;1.90;;;14.10;99.90;;;;;;5060663;28;20199;-46
2021/09/19 08:52:16;;;;;;;3.27;2.53;;;14.10;99.90;;;;;;5059188;28;20210;-49
2021/09/19 08:54:43;;;;;;;2.07;1.87;;;14.20;99.90;;;;;;5068666;28;20904;-45
2021/09/19 08:57:10;;;;;;;3.03;2.40;;;14.20;99.90;;;;;;5080603;28;20238;-47
2021/09/19 08:59:48;;;;;;;2.90;2.40;;;14.30;99.90;;;;;;5037532;28;20195;-48
2021/09/19 09:02:15;;;;;;;2.17;2.00;;;14.30;99.90;;;;;;5054721;28;20682;-49
2021/09/19 09:04:42;;;;;;;2.33;1.90;;;14.30;99.90;;;;;;5067996;28;20226;-48
2021/09/19 09:07:11;;;;;;;2.60;2.20;;;14.30;99.90;;;;;;5053640;28;20222;-47
2021/09/19 09:09:38;;;;;;;2.63;1.97;;;14.30;99.90;;;;;;5060136;28;20191;-49
2021/09/19 09:12:07;;;;;;;2.60;2.17;;;14.40;99.90;;;;;;5071163;28;20198;-51
2021/09/19 09:14:42;;;;;;;4.00;2.20;;;14.40;99.90;;;;;;5056762;28;20218;-49
2021/09/19 09:17:15;;;;;;;2.73;1.90;;;14.50;99.90;;;;;;5070573;28;20217;-49
2021/09/19 09:19:43;;;;;;;3.97;2.00;;;14.50;99.90;;;;;;5062386;28;20194;-51
2021/09/19 09:22:12;;;;;;;2.13;1.93;;;14.60;99.90;;;;;;5067739;28;20209;-48
2021/09/19 09:24:40;;;;;;;2.13;1.70;;;14.60;99.90;;;;;;5059819;28;20895;-48
2021/09/19 09:27:21;;;;;;;4.40;2.60;;;14.60;99.90;;;;;;5066349;28;20218;-52
2021/09/19 09:30:09;;;;;;;3.03;1.90;;;14.80;99.90;;;;;;5050093;28;20573;-47
2021/09/19 09:32:57;;;;;;;3.57;2.37;;;14.80;99.90;;;;;;5055657;28;20913;-49
2021/09/19 09:35:30;;;;;;;2.93;2.20;;;14.80;99.90;;;;;;5062020;28;20269;-45
2021/09/19 09:37:58;;;;;;;3.07;1.83;;;14.80;99.90;;;;;;5053823;28;20215;-48
2021/09/19 09:40:27;;;;;;;3.23;2.00;;;14.90;99.90;;;;;;5054740;28;20927;-49
2021/09/19 09:43:09;;;;;;;2.07;1.87;;;14.90;99.90;;;;;;5066663;28;20201;-50
2021/09/19 09:45:37;;;;;;;2.30;2.10;;;15.00;99.90;;;;;;5055831;28;20201;-48
2021/09/19 09:48:05;;;;;;;2.97;1.90;;;15.00;99.90;;;;;;5068380;28;20222;-51
2021/09/19 09:50:32;;;;;;;3.00;1.90;;;14.90;99.90;;;;;;5069758;28;20193;-46
2021/09/19 09:53:12;;;;;;;2.10;1.90;;;15.00;99.90;;;;;;5061110;28;20676;-46
2021/09/19 09:55:43;;;;;;;2.83;2.10;;;15.00;99.90;;;;;;5061154;28;20194;-45
2021/09/19 09:58:12;;;;;;;3.50;1.90;;;15.00;99.90;;;;;;5061007;28;20221;-51
2021/09/19 10:00:40;;;;;;;4.20;2.33;;;15.10;99.90;;;;;;5051200;28;20204;-50
2021/09/19 10:03:08;;;;;;;2.67;2.20;;;15.20;99.90;;;;;;5062133;28;20209;-52
2021/09/19 10:05:35;;;;;;;2.30;2.10;;;15.20;99.90;;;;;;5057293;28;20190;-50
2021/09/19 10:08:02;;;;;;;2.30;2.10;;;15.20;99.90;;;;;;5060552;28;20684;-49
2021/09/19 10:10:38;;;;;;;2.33;2.13;;;15.20;99.90;;;;;;5062315;28;20183;-46
2021/09/19 10:13:05;;;;;;;2.67;2.00;;;15.20;99.90;;;;;;5075075;28;20198;-52
2021/09/19 10:15:33;;;;;;;6.33;2.80;;;15.20;99.90;;;;;;5054062;28;20215;-47
2021/09/19 10:18:00;;;;;;;3.03;2.00;;;15.10;99.90;;;;;;5069361;28;20218;-51
2021/09/19 10:20:31;;;;;;;2.03;1.80;;;15.20;99.90;;;;;;5058756;28;20194;-45
2021/09/19 10:23:02;;;;;;;1.93;1.77;;;15.10;99.90;;;;;;5061952;28;20202;-49
2021/09/19 10:25:42;;;;;;;4.23;2.20;;;15.20;99.90;;;;;;5058803;28;20925;-45
2021/09/19 10:28:17;;;;;;;2.00;1.80;;;15.20;99.90;;;;;;5066300;28;20221;-53
2021/09/19 10:31:31;;;;;;;2.20;2.00;;;15.30;99.90;;;;;;5066855;28;20206;-50
2021/09/19 10:34:00;;;;;;;1.90;1.70;;;15.40;99.90;;;;;;5058739;28;20270;-51
2021/09/19 10:36:38;;;;;;;3.43;2.10;;;15.30;99.90;;;;;;5059019;28;20207;-47
2021/09/19 10:39:19;;;;;;;2.43;2.07;;;15.30;99.90;;;;;;5057337;28;20206;-55
2021/09/19 10:42:17;;;;;;;2.43;1.60;;;15.30;99.90;;;;;;5068610;28;20210;-55
2021/09/19 10:44:58;;;;;;;3.67;2.37;;;15.30;99.90;;;;;;5063694;28;20205;-45
2021/09/19 10:47:31;;;;;;;2.07;1.80;;;15.40;99.90;;;;;;5046398;28;20835;-50
2021/09/19 10:50:21;;;;;;;1.97;1.63;;;15.30;99.90;;;;;;5065324;28;20209;-50
2021/09/19 10:52:51;;;;;;;2.47;1.40;;;15.40;99.90;;;;;;5050886;28;20215;-46
2021/09/19 10:55:30;;;;;;;3.53;2.20;;;15.40;99.90;;;;;;5061716;28;20229;-50
2021/09/19 10:58:01;;;;;;;2.53;2.00;;;15.40;99.90;;;;;;5065069;28;20225;-53
2021/09/19 11:00:29;;;;;;;3.27;1.87;;;15.40;99.90;;;;;;5067135;28;20194;-45
2021/09/19 11:03:08;;;;;;;2.10;1.90;;;15.50;99.90;;;;;;5046861;28;20211;-45
2021/09/19 11:05:37;;;;;;;2.23;2.13;;;15.60;99.90;;;;;;5054143;28;21366;-48
2021/09/19 11:08:31;;;;;;;2.40;2.20;;;15.60;99.90;;;;;;5060238;28;20215;-54
2021/09/19 11:11:12;;;;;;;2.23;2.03;;;15.70;99.90;;;;;;5068426;28;20535;-47
2021/09/19 11:13:43;;;;;;;1.83;1.70;;;15.80;99.90;;;;;;5062489;28;20819;-49
2021/09/19 11:16:17;;;;;;;1.87;1.77;;;15.80;99.90;;;;;;5068376;28;20226;-51
2021/09/19 11:18:46;;;;;;;3.03;1.80;;;15.90;99.90;;;;;;5047973;28;20206;-46
2021/09/19 11:21:15;;;;;;;3.70;2.20;;;15.90;99.90;;;;;;5056735;28;20195;-56
2021/09/19 11:23:46;;;;;;;2.07;1.87;;;16.00;99.90;;;;;;5060702;28;20203;-48
2021/09/19 11:26:14;;;;;;;2.43;1.70;;;16.10;99.90;;;;;;5060857;28;20222;-53
2021/09/19 11:28:42;;;;;;;2.67;2.00;;;16.20;99.90;;;;;;5075337;28;20218;-56
2021/09/19 11:31:09;;;;;;;2.90;2.10;;;16.30;99.90;;;;;;5062936;28;20230;-57
2021/09/19 11:33:36;;;;;;;2.57;1.70;;;16.40;99.90;;;;;;5046223;28;20299;-45
2021/09/19 11:36:04;;;;;;;2.10;1.90;;;16.40;99.90;;;;;;5064588;28;20190;-56
2021/09/19 11:38:35;;;;;;;2.07;1.67;;;16.40;99.90;;;;;;5060635;28;20198;-45
2021/09/19 11:41:02;;;;;;;3.53;2.00;;;16.50;99.90;;;;;;5063551;28;20222;-56
2021/09/19 11:43:29;;;;;;;2.77;1.93;;;16.60;99.90;;;;;;5064251;28;20218;-49
2021/09/19 11:45:57;;;;;;;5.23;2.67;;;16.70;99.90;;;;;;5067265;28;20224;-52
2021/09/19 11:48:24;;;;;;;4.37;2.30;;;16.80;99.90;;;;;;5048952;28;20729;-50
2021/09/19 11:50:52;;;;;;;2.57;2.07;;;16.90;99.90;;;;;;5067369;28;20198;-49
2021/09/19 11:53:19;;;;;;;2.30;2.10;;;16.80;99.90;;;;;;5059450;28;20237;-49
2021/09/19 11:55:47;;;;;;;1.80;1.70;;;16.80;99.90;;;;;;5059683;28;20198;-48
2021/09/19 11:58:15;;;;;;;3.27;1.97;;;16.80;99.90;;;;;;5085146;28;20218;-47
2021/09/19 12:00:42;;;;;;;2.10;1.90;;;16.70;99.90;;;;;;5071679;28;20709;-53
2021/09/19 12:03:10;;;;;;;2.43;2.07;;;16.60;99.90;;;;;;5057536;28;20209;-51
2021/09/19 12:05:37;;;;;;;3.23;2.17;;;16.60;99.90;;;;;;5056371;28;20217;-53
2021/09/19 12:08:04;;;;;;;2.23;1.90;;;16.60;99.90;;;;;;5062421;28;20560;-56
2021/09/19 12:10:32;;;;;;;1.70;1.60;;;16.50;99.90;;;;;;5056391;28;20206;-50
2021/09/19 12:12:58;;;;;;;2.33;2.07;;;16.50;99.90;;;;;;5064552;28;20206;-59
2021/09/19 12:15:25;;;;;;;2.13;1.93;;;16.40;99.90;;;;;;5079579;28;20232;-51
2021/09/19 12:18:04;;;;;;;2.90;2.53;;;16.40;99.90;;;;;;5068194;28;20320;-46
2021/09/19 12:20:32;;;;;;;2.37;2.10;;;16.40;99.90;;;;;;5064858;28;20887;-46
2021/09/19 12:23:13;;;;;;;4.00;1.97;;;16.50;99.90;;;;;;5065313;28;20210;-58
2021/09/19 12:25:46;;;;;;;2.70;2.50;;;16.50;99.90;;;;;;5056371;28;20210;-57
2021/09/19 12:28:26;;;;;;;2.10;1.87;;;16.50;99.90;;;;;;5069665;28;20210;-47
2021/09/19 12:30:53;;;;;;;2.70;2.00;;;16.50;99.90;;;;;;5062804;28;20978;-48
2021/09/19 12:33:19;;;;;;;1.90;1.80;;;16.50;99.90;;;;;;5069950;28;20194;-52
2021/09/19 12:35:47;;;;;;;3.53;2.03;;;16.50;99.90;;;;;;5047665;28;20206;-51
2021/09/19 12:38:17;;;;;;;1.63;1.53;;;16.60;99.90;;;;;;5060262;28;20574;-51
2021/09/19 12:40:44;;;;;;;2.40;2.20;;;16.70;99.90;;;;;;5058024;28;20209;-50
2021/09/19 12:43:13;;;;;;;1.83;1.60;;;16.90;99.90;;;;;;5057192;28;20214;-57
2021/09/19 12:45:41;;;;;;;1.60;1.40;;;16.90;99.90;;;;;;5063795;28;20209;-48
2021/09/19 12:48:09;;;;;;;5.60;1.60;;;16.80;99.90;;;;;;5058104;28;20292;-51
2021/09/19 12:50:37;;;;;;;2.10;1.93;;;16.80;99.90;;;;;;5050243;28;20221;-52
2021/09/19 12:53:05;;;;;;;1.97;1.67;;;16.70;99.90;;;;;;5062275;28;22053;-53
2021/09/19 12:55:32;;;;;;;5.10;1.87;;;16.70;99.90;;;;;;5061940;28;20253;-49